Latest Coastal Weather Observations for Adelaide Airport

IDS60701

Issued at 6:05 am CST Thursday 2 October 2014 (issued every 10 minutes, with the page automatically refreshed every 10 minutes)

About coastal observations | Map of coastal stations | Coastal observations for SA | Marine services | Other Formats
Station Details ID: 023034 Name: ADELAIDE AIRPORT Lat: -34.95 Lon: 138.52 Height: 2.0 m
Data from the previous 72 hours. | See also: Recent months at Adelaide Airport
Date/Time
CST
Temp

°C
Wind Pressure Rain
since 9am
mm
Weather Cloud Vis
km
Sea
Height
m
Swell
Dir
 
Speed
knots
Gust
knots
hPa Trend Height
m
Period
s
Dir
02/06:00am 7.2 NE 4 5 1028.0 - 0.0 - Mostly cloudy 10 - - - -
02/05:30am 6.3 ENE 5 6 1027.7 - 0.0 - Partly cloudy 10 - - - -
02/05:00am 6.7 CALM 0 0 1027.5 - 0.0 - - 10 - - - -
02/04:30am 7.4 SSE 4 5 1027.2 - 0.0 - - 10 - - - -
02/04:00am 8.0 S 5 5 1027.0 - 0.0 - - 10 - - - -
02/03:30am 8.7 SSE 6 7 1026.9 - 0.0 - - 10 - - - -
02/03:00am 9.3 SE 7 9 1026.9 F 0.0 Fine Clear 30 - - - -
02/02:30am 10.4 SE 7 11 1027.1 - 0.0 - - 10 - - - -
02/02:00am 9.5 SE 5 6 1027.3 - 0.0 - - 10 - - - -
02/01:30am 9.6 SSE 7 8 1027.6 - 0.0 - - 10 - - - -
02/01:00am 9.3 SSE 6 7 1028.0 - 0.0 - - 10 - - - -
02/12:30am 9.9 SSE 6 7 1028.1 - 0.0 - - 10 - - - -
02/12:00am 9.3 S 6 8 1028.1 F 0.0 Fine Clear 30 - - - -
 
Date/Time
CST
Temp

°C
Wind Pressure Rain
since 9am
mm
Weather Cloud Vis
km
Sea
Height
m
Swell
Dir
 
Speed
knots
Gust
knots
hPa Trend Height
m
Period
s
Dir
01/11:30pm 9.9 SSE 6 6 1028.3 - 0.0 - - 10 - - - -
01/11:00pm 9.7 SSE 5 6 1028.6 - 0.0 - - 10 - - - -
01/10:30pm 9.9 SSE 6 7 1028.6 - 0.0 - - 10 - - - -
01/10:00pm 10.2 ESE 4 4 1028.8 - 0.0 - - 10 - - - -
01/09:30pm 10.9 SE 5 5 1028.8 - 0.0 - - 10 - - - -
01/09:00pm 11.0 SE 5 6 1028.7 R 0.0 Fine Clear 30 - - - -
01/08:30pm 11.9 SE 6 8 1028.5 - 0.0 - - 10 - - - -
01/08:00pm 12.4 SSE 8 10 1028.4 - 0.0 - - 10 - - - -
01/07:30pm 12.8 SSE 11 14 1028.1 - 0.0 - - 10 - - - -
01/07:00pm 13.9 S 9 11 1027.7 - 0.0 - - 10 - - - -
01/06:30pm 14.6 S 9 11 1027.3 - 0.0 - - 10 - - - -
01/06:00pm 14.9 SSW 13 17 1027.1 F 0.0 Haze Clear 20 - - - -
01/05:30pm 15.2 SSW 13 18 1027.0 - 0.0 - Mostly clear 10 - - - -
01/05:00pm 15.5 SSW 15 22 1027.0 - 0.0 - Mostly clear 10 - - - -
01/04:30pm 15.7 SSW 16 20 1026.8 - 0.0 - Mostly clear 10 - - - -
01/04:00pm 15.8 SW 16 21 1026.8 - 0.0 - Mostly clear 10 - - - -
01/03:30pm 15.6 SW 17 20 1026.9 - 0.0 - Mostly clear 10 - - - -
01/03:00pm 17.0 SW 17 22 1026.9 F 0.0 Haze Mostly clear 25 - - - -
01/02:30pm 17.0 SW 15 20 1027.1 - 0.0 - Mostly clear 10 - - - -
01/02:00pm 16.5 SW 16 20 1027.4 - 0.0 - Mostly clear 10 - - - -
01/01:30pm 15.9 SW 16 19 1027.6 - 0.0 - Mostly clear 10 - - - -
01/01:00pm 16.3 SW 16 19 1028.0 - 0.0 - Partly cloudy 10 - - - -
01/12:30pm 15.8 SW 15 18 1028.1 - 0.0 - Partly cloudy 10 - - - -
01/12:00pm 15.4 WSW 15 19 1028.4 R 0.0 Haze Partly cloudy 25 - - - -
01/11:30am 16.0 SW 14 18 1028.5 - 0.0 - Partly cloudy 10 - - - -
01/11:00am 15.5 SW 12 16 1028.5 - 0.0 - Partly cloudy 10 - - - -
01/10:30am 16.1 WSW 13 16 1028.6 - 0.0 - Partly cloudy 10 - - - -
01/10:00am 14.9 SW 12 16 1028.5 - 0.0 - Mostly clear 10 - - - -
01/09:30am 14.7 SW 11 16 1028.4 - 0.0 - Mostly clear 10 - - - -
01/09:00am 14.5 SW 11 14 1028.2 R 0.4 Haze Partly cloudy 25 - - - -
01/08:30am 14.0 SSW 9 13 1028.0 - 0.4 - Mostly clear 10 - - - -
01/08:00am 13.8 S 6 7 1027.7 - 0.4 - Mostly clear 10 - - - -
01/07:30am 12.4 SSE 5 7 1027.3 - 0.4 - Mostly clear 10 - - - -
01/07:00am 10.8 SE 4 5 1027.0 - 0.4 - Mostly clear 10 - - - -
01/06:30am 10.3 SE 5 5 1026.6 - 0.4 - Mostly clear 10 - - - -
01/06:00am 9.6 CALM 0 0 1026.1 R 0.4 Fine Mostly cloudy 30 - - - -
01/05:30am 10.4 SSE 4 5 1025.5 - 0.4 - Partly cloudy 10 - - - -
01/05:00am 10.9 SSE 6 7 1025.0 - 0.4 - Mostly clear 10 - - - -
01/04:30am 11.4 S 5 6 1024.7 - 0.4 - Mostly clear 10 - - - -
01/04:00am 11.6 SSW 6 9 1024.3 - 0.4 Showers Mostly clear 10 - - - -
01/03:54am 11.5 S 6 9 1024.3 - 0.2 Showers Mostly clear 10 - - - -
01/03:30am 12.1 SE 6 8 1024.1 - 0.2 - Mostly clear 10 - - - -
01/03:00am 12.3 S 6 9 1023.7 R 0.2 Fine Mostly cloudy 30 - - - -
01/02:30am 12.3 SSW 9 13 1023.7 - 0.2 - Partly cloudy 10 - - - -
01/02:00am 12.5 S 8 11 1023.6 - 0.2 - Mostly clear 10 - - - -
01/01:30am 11.8 SSE 6 7 1023.5 - 0.0 - Partly cloudy 10 - - - -
01/01:00am 11.7 S 6 8 1023.5 - 0.0 - Mostly clear 10 - - - -
01/12:30am 12.5 S 9 14 1023.4 - 0.0 - Partly cloudy 10 - - - -
01/12:00am 12.8 SSW 8 12 1023.1 R 0.0 Fine Partly cloudy 30 - - - -
 
Date/Time
CST
Temp

°C
Wind Pressure Rain
since 9am
mm
Weather Cloud Vis
km
Sea
Height
m
Swell
Dir
 
Speed
knots
Gust
knots
hPa Trend Height
m
Period
s
Dir
30/11:30pm 12.4 S 7 10 1022.8 - 0.0 - Mostly clear 10 - - - -
30/11:00pm 13.5 SW 14 17 1022.7 - 0.0 - Partly cloudy 10 - - - -
30/10:30pm 13.5 SSW 13 17 1022.4 - 0.0 - Partly cloudy 10 - - - -
30/10:00pm 13.5 SW 14 20 1022.2 - 0.0 - Mostly clear 10 - - - -
30/09:30pm 13.7 SW 17 22 1022.1 - 0.0 - Mostly clear 10 - - - -
30/09:00pm 14.0 SW 16 25 1021.7 R 0.0 Fine Mostly clear 30 - - - -
30/08:30pm 14.4 SW 20 24 1021.3 - 0.0 - Partly cloudy 10 - - - -
30/08:00pm 14.6 WSW 21 27 1020.8 - 0.0 - Mostly clear 10 - - - -
30/07:30pm 14.8 WSW 21 26 1020.3 - 0.0 - Cloudy 10 - - - -
30/07:00pm 14.8 WSW 21 28 1019.7 - 0.0 - Mostly clear 10 - - - -
30/06:30pm 14.9 WSW 20 26 1019.2 - 0.0 - Mostly clear 10 - - - -
30/06:00pm 15.4 WSW 20 27 1018.8 R 0.0 Haze Partly cloudy 25 - - - -
30/05:30pm 15.3 WSW 19 23 1018.4 - 0.0 - Mostly clear 10 - - - -
30/05:00pm 16.2 WSW 23 29 1018.0 - 0.0 - Mostly clear 10 - - - -
30/04:30pm 16.6 WSW 22 27 1017.5 - 0.0 - Mostly clear 10 - - - -
30/04:00pm 17.1 WSW 21 27 1017.2 - 0.0 - Mostly clear 10 - - - -
30/03:30pm 17.1 WSW 22 27 1017.0 - 0.0 - Mostly clear 10 - - - -
30/03:00pm 17.0 WSW 20 24 1016.7 R 0.0 Haze Mostly clear 20 - - - -
30/02:30pm 15.6 WSW 17 25 1016.7 - 0.0 - Mostly clear 10 - - - -
30/02:00pm 13.9 WSW 27 33 1016.7 - 0.0 - Mostly clear 10 - - - -
30/01:49pm 14.2 WSW 24 33 1016.6 - 0.0 Showers Mostly clear 3 - - - -
30/01:46pm 14.7 WSW 22 33 1016.5 - 0.0 Showers Mostly clear 6 - - - -
30/01:30pm 16.4 WSW 18 23 1016.1 - 0.0 - Mostly clear 10 - - - -
30/01:23pm 16.2 WSW 19 29 1015.9 - 0.0 - Mostly clear 10 - - - -
30/01:15pm 16.4 WSW 23 29 1015.9 - 0.0 - Mostly clear 10 - - - -
30/01:13pm 17.4 W 16 26 1015.9 - 0.0 - Mostly clear 10 - - - -
30/01:00pm 19.1 W 14 19 1015.6 - 0.0 - Mostly clear 10 - - - -
30/12:30pm 19.1 W 19 24 1015.5 - 0.0 - Mostly clear 10 - - - -
30/12:00pm 18.2 WNW 17 21 1015.2 R 0.0 Haze Mostly cloudy 25 - - - -
30/11:30am 18.5 WNW 17 22 1015.1 - 0.0 - Mostly clear 10 - - - -
30/11:00am 17.8 WNW 17 23 1015.0 - 0.0 - Mostly clear 10 - - - -
30/10:30am 18.9 WNW 18 23 1015.0 - 0.0 - Mostly clear 10 - - - -
30/10:00am 18.9 WNW 16 21 1014.8 - 0.0 - Mostly clear 10 - - - -
30/09:30am 18.7 WNW 15 19 1014.7 - 0.0 - Mostly clear 10 - - - -
30/09:00am 18.4 NW 16 20 1014.3 R 0.0 Fine Mostly clear 30 - - - -
30/08:30am 17.9 NW 17 21 1014.2 - 0.0 - Mostly clear 10 - - - -
30/08:00am 17.8 NW 11 14 1013.7 - 0.0 - - 10 - - - -
30/07:30am 15.9 N 9 12 1013.3 - 0.0 - - 10 - - - -
30/07:00am 13.2 NNE 10 14 1012.7 - 0.0 - - 10 - - - -
30/06:30am 11.1 NNE 8 9 1012.9 - 0.0 - - 10 - - - -
30/06:00am 10.0 N 8 11 1012.5 S 0.0 Fine Mostly clear 30 - - - -
30/05:30am 10.9 NNE 8 10 1012.0 - 0.0 - - 10 - - - -
30/05:00am 11.2 NNE 9 10 1011.8 - 0.0 - - 10 - - - -
30/04:30am 11.3 NE 7 10 1011.6 - 0.0 - - 10 - - - -
30/04:00am 10.9 NNE 8 9 1011.5 - 0.0 - - 10 - - - -
30/03:30am 11.1 NNE 8 10 1011.4 - 0.0 - - 10 - - - -
30/03:00am 11.4 NNE 9 12 1011.8 F 0.0 Haze Clear 25 - - - -
30/02:30am 11.3 NE 8 9 1011.9 - 0.0 - - 10 - - - -
30/02:00am 10.4 NE 8 10 1012.2 - 0.0 - - 10 - - - -
30/01:30am 11.9 NE 7 8 1012.9 - 0.0 - - 10 - - - -
30/01:00am 11.7 ENE 5 6 1013.1 - 0.0 - - 10 - - - -
30/12:30am 11.4 NE 6 7 1013.6 - 0.0 - - 10 - - - -
30/12:00am 12.0 NE 6 6 1014.1 F 0.0 Haze Clear 20 - - - -
 
Date/Time
CST
Temp

°C
Wind Pressure Rain
since 9am
mm
Weather Cloud Vis
km
Sea
Height
m
Swell
Dir
 
Speed
knots
Gust
knots
hPa Trend Height
m
Period
s
Dir
29/11:30pm 11.8 NE 4 4 1014.4 - 0.0 - - 10 - - - -
29/11:00pm 11.7 NE 5 5 1014.7 - 0.0 - - 10 - - - -
29/10:30pm 12.2 CALM 0 0 1014.9 - 0.0 - - 10 - - - -
29/10:00pm 14.1 WSW 2 4 1015.1 - 0.0 - - 10 - - - -
29/09:30pm 14.3 SSW 5 5 1015.1 - 0.0 - - 10 - - - -
29/09:00pm 14.7 SW 6 8 1015.0 R 0.0 Fine Clear 25 - - - -
29/08:30pm 15.0 SW 7 9 1014.8 - 0.0 - - 10 - - - -
29/08:00pm 15.6 W 9 12 1014.6 - 0.0 - - 10 - - - -
29/07:30pm 16.7 W 8 12 1014.1 - 0.0 - - 10 - - - -
29/07:00pm 16.8 W 6 8 1013.7 - 0.0 - - 10 - - - -
29/06:30pm 17.3 W 4 4 1013.3 - 0.0 - - 10 - - - -
29/06:00pm 18.4 W 3 5 1013.1 F 0.0 Fine Clear 35 - - - -
29/05:30pm 19.1 W 5 7 1013.2 - 0.0 - - 10 - - - -
29/05:00pm 19.3 W 6 8 1013.1 - 0.0 - Mostly clear 10 - - - -
29/04:30pm 19.2 W 7 9 1013.2 - 0.0 - Mostly clear 10 - - - -
29/04:00pm 19.2 W 8 10 1013.2 - 0.0 - Mostly clear 10 - - - -
29/03:30pm 19.5 WNW 9 13 1013.3 - 0.0 - Mostly clear 10 - - - -
29/03:00pm 19.6 WNW 11 17 1013.4 F 0.0 Fine Mostly clear 35 - - - -
29/02:30pm 19.6 NW 12 17 1013.5 - 0.0 - Mostly clear 10 - - - -
29/02:00pm 19.8 NNW 13 17 1013.7 - 0.0 - Mostly clear 10 - - - -
29/01:30pm 19.7 NNW 14 17 1014.1 - 0.0 - Mostly clear 10 - - - -
29/01:00pm 20.1 NNW 14 18 1014.4 - 0.0 - Mostly clear 10 - - - -
29/12:30pm 19.4 NNW 14 18 1014.8 - 0.0 - Mostly clear 10 - - - -
29/12:00pm 18.7 NW 13 17 1015.1 F 0.0 Fine Mostly clear 30 - - - -
29/11:30am 18.1 NNW 11 14 1015.5 - 0.0 - Mostly clear 10 - - - -
29/11:00am 18.3 NNW 11 14 1015.8 - 0.0 - Mostly clear 10 - - - -
29/10:30am 17.3 NNW 15 19 1016.1 - 0.0 - Mostly clear 10 - - - -
29/10:00am 17.6 NNW 14 17 1016.3 - 0.0 - Mostly clear 10 - - - -
29/09:30am 16.8 NNW 12 16 1016.5 - 0.0 - Mostly clear 10 - - - -
29/09:00am 16.3 NNW 11 14 1016.3 R 0.0 Haze Partly cloudy 20 - - - -
29/08:30am 15.8 N 7 10 1016.0 - 0.0 - Mostly clear 10 - - - -
29/08:00am 14.2 N 9 12 1015.8 - 0.0 - Mostly clear 10 - - - -
29/07:30am 13.2 N 9 12 1015.5 - 0.0 - Mostly clear 10 - - - -
29/07:00am 12.5 N 8 10 1015.4 - 0.0 - Mostly clear 10 - - - -
29/06:30am 11.1 NNE 7 8 1015.1 - 0.0 - Mostly clear 10 - - - -

Other Formats:

Comma delimited format used in spreadsheet applications
http://www.bom.gov.au/fwo/IDS60701/IDS60701.94672.axf

JavaScript Object Notation format (JSON) in row-major order
http://www.bom.gov.au/fwo/IDS60701/IDS60701.94672.json